createdAt,value
2023-04-02T00:00:11.778Z,2.05
2023-04-02T00:03:01.669Z,2.02
2023-04-02T00:05:31.819Z,2.01
2023-04-02T00:08:20.725Z,1.99
2023-04-02T00:10:51.081Z,1.97
2023-04-02T00:13:33.752Z,1.95
2023-04-02T00:16:04.558Z,1.94
2023-04-02T00:18:36.209Z,1.97
2023-04-02T00:21:39.885Z,2.00
2023-04-02T00:24:16.161Z,2.00
2023-04-02T00:26:46.467Z,2.00
2023-04-02T00:29:16.094Z,1.98
2023-04-02T00:31:53.029Z,1.98
2023-04-02T00:34:26.393Z,1.99
2023-04-02T00:36:55.207Z,2.01
2023-04-02T00:39:30.016Z,2.05
2023-04-02T00:42:05.917Z,2.07
2023-04-02T00:44:42.982Z,2.07
2023-04-02T00:47:33.931Z,2.06
2023-04-02T00:50:19.538Z,2.05
2023-04-02T00:52:52.697Z,2.05
2023-04-02T00:55:24.055Z,2.07
2023-04-02T00:57:53.484Z,2.10
2023-04-02T01:00:30.142Z,2.09
2023-04-02T01:03:37.259Z,2.09
2023-04-02T01:06:16.156Z,2.10
2023-04-02T01:08:58.448Z,2.11
2023-04-02T01:11:46.651Z,2.10
2023-04-02T01:14:35.615Z,2.08
2023-04-02T01:17:20.122Z,2.07
2023-04-02T01:20:16.452Z,2.06
2023-04-02T01:23:06.050Z,2.06
2023-04-02T01:25:43.152Z,2.05
2023-04-02T01:28:22.641Z,2.00
2023-04-02T01:30:57.170Z,1.95
2023-04-02T01:33:33.226Z,1.92
2023-04-02T01:36:09.193Z,1.89
2023-04-02T01:39:03.856Z,1.86
2023-04-02T01:42:02.023Z,1.84
2023-04-02T01:44:40.648Z,1.83
2023-04-02T01:47:16.395Z,1.80
2023-04-02T01:49:46.514Z,1.78
2023-04-02T01:52:26.619Z,1.73
2023-04-02T01:54:57.200Z,1.68
2023-04-02T01:57:25.612Z,1.66
2023-04-02T01:59:54.924Z,1.64
2023-04-02T02:02:23.490Z,1.63
2023-04-02T02:04:51.918Z,1.61
2023-04-02T02:07:21.895Z,1.58
2023-04-02T02:09:50.516Z,1.54
2023-04-02T02:12:18.794Z,1.48
2023-04-02T02:14:52.491Z,1.43
2023-04-02T02:17:30.842Z,1.38
2023-04-02T02:20:00.839Z,1.32
2023-04-02T02:22:35.641Z,1.29
2023-04-02T02:25:07.641Z,1.27
2023-04-02T02:27:51.618Z,1.27
2023-04-02T02:30:29.252Z,1.25
2023-04-02T02:33:21.962Z,1.22
2023-04-02T02:36:05.084Z,1.13
2023-04-02T02:38:49.025Z,1.05
2023-04-02T02:41:19.940Z,1.02
2023-04-02T02:44:06.775Z,0.99
2023-04-02T02:46:38.274Z,0.95
2023-04-02T02:49:09.660Z,0.92
2023-04-02T02:52:00.723Z,0.89
2023-04-02T02:54:32.522Z,0.85
2023-04-02T02:57:06.224Z,0.79
2023-04-02T02:59:35.151Z,0.74
2023-04-02T03:02:07.333Z,0.72
2023-04-02T03:04:36.629Z,0.68
2023-04-02T03:07:09.243Z,0.65
2023-04-02T03:10:01.797Z,0.62
2023-04-02T03:12:35.079Z,0.61
2023-04-02T03:15:20.689Z,0.60
2023-04-02T03:17:53.707Z,0.58
2023-04-02T03:20:34.120Z,0.52
2023-04-02T03:23:24.905Z,0.48
2023-04-02T03:26:19.230Z,0.43
2023-04-02T03:29:01.965Z,0.41
2023-04-02T03:31:49.332Z,0.40
2023-04-02T03:34:20.345Z,0.39
2023-04-02T03:36:58.205Z,0.39
2023-04-02T03:39:36.807Z,0.39
2023-04-02T03:42:05.109Z,0.37
2023-04-02T03:44:59.188Z,0.33
2023-04-02T03:47:39.272Z,0.30
2023-04-02T03:50:15.722Z,0.27
2023-04-02T03:52:45.162Z,0.27
2023-04-02T03:55:22.531Z,0.27
2023-04-02T03:58:03.506Z,0.28
2023-04-02T04:00:39.025Z,0.30
2023-04-02T04:03:15.821Z,0.31
2023-04-02T04:05:59.864Z,0.28
2023-04-02T04:08:42.598Z,0.25
2023-04-02T04:11:17.095Z,0.22
2023-04-02T04:14:12.628Z,0.21
2023-04-02T04:17:04.718Z,0.20
2023-04-02T04:19:55.654Z,0.22
2023-04-02T04:22:34.187Z,0.22
2023-04-02T04:25:07.051Z,0.23
2023-04-02T04:27:58.743Z,0.23
2023-04-02T04:30:42.227Z,0.21
2023-04-02T04:33:23.304Z,0.19
2023-04-02T04:36:00.349Z,0.20
2023-04-02T04:38:39.658Z,0.20
2023-04-02T04:41:22.822Z,0.22
2023-04-02T04:44:07.866Z,0.26
2023-04-02T04:46:43.190Z,0.28
2023-04-02T04:49:17.329Z,0.30
2023-04-02T04:51:51.258Z,0.31
2023-04-02T04:54:20.602Z,0.32
2023-04-02T04:56:54.947Z,0.34
2023-04-02T04:59:47.771Z,0.36
2023-04-02T05:02:27.027Z,0.40
2023-04-02T05:04:56.080Z,0.43
2023-04-02T05:07:44.188Z,0.44
2023-04-02T05:10:25.085Z,0.45
2023-04-02T05:13:11.007Z,0.45
2023-04-02T05:15:46.067Z,0.46
2023-04-02T05:18:34.408Z,0.48
2023-04-02T05:21:36.920Z,0.53
2023-04-02T05:24:31.411Z,0.58
2023-04-02T05:27:36.172Z,0.61
2023-04-02T05:30:49.620Z,0.66
2023-04-02T05:33:29.202Z,0.71
2023-04-02T05:36:11.860Z,0.74
2023-04-02T05:38:46.688Z,0.81
2023-04-02T05:41:32.417Z,0.88
2023-04-02T05:44:16.693Z,0.96
2023-04-02T05:46:57.455Z,1.01
2023-04-02T05:50:07.850Z,1.04
2023-04-02T05:52:42.743Z,1.09
2023-04-02T05:55:13.834Z,1.13
2023-04-02T05:58:13.296Z,1.20
2023-04-02T06:00:55.478Z,1.26
2023-04-02T06:03:42.048Z,1.29
2023-04-02T06:06:23.426Z,1.38
2023-04-02T06:08:58.552Z,1.42
2023-04-02T06:11:32.995Z,1.45
2023-04-02T06:14:01.296Z,1.50
2023-04-02T06:16:32.147Z,1.55
2023-04-02T06:19:00.582Z,1.61
2023-04-02T06:21:28.977Z,1.66
2023-04-02T06:24:02.664Z,1.68
2023-04-02T06:26:41.935Z,1.70
2023-04-02T06:29:20.475Z,1.72
2023-04-02T06:31:54.239Z,1.74
2023-04-02T06:34:24.894Z,1.78
2023-04-02T06:36:58.619Z,1.85
2023-04-02T06:39:29.384Z,1.91
2023-04-02T06:42:19.662Z,1.94
2023-04-02T06:44:48.682Z,1.95
2023-04-02T06:47:26.747Z,1.97
2023-04-02T06:50:36.220Z,1.99
2023-04-02T06:53:06.703Z,2.04
2023-04-02T06:55:52.926Z,2.08
2023-04-02T06:58:21.461Z,2.13
2023-04-02T07:00:51.271Z,2.16
2023-04-02T07:03:34.885Z,2.19
2023-04-02T07:06:03.921Z,2.22
2023-04-02T07:08:32.169Z,2.25
2023-04-02T07:11:00.959Z,2.30
2023-04-02T07:13:29.903Z,2.33
2023-04-02T07:15:58.520Z,2.37
2023-04-02T07:18:28.686Z,2.39
2023-04-02T07:20:57.133Z,2.41
2023-04-02T07:23:26.224Z,2.43
2023-04-02T07:25:56.435Z,2.47
2023-04-02T07:28:26.074Z,2.55
2023-04-02T07:30:55.127Z,2.60
2023-04-02T07:33:29.827Z,2.64
2023-04-02T07:35:58.873Z,2.67
2023-04-02T07:38:27.362Z,2.69
2023-04-02T07:40:55.785Z,2.72
2023-04-02T07:43:24.020Z,2.79
2023-04-02T07:45:52.386Z,2.86
2023-04-02T07:48:20.804Z,2.94
2023-04-02T07:50:49.241Z,2.99
2023-04-02T07:53:34.585Z,3.02
2023-04-02T07:56:04.415Z,3.07
2023-04-02T07:58:33.227Z,3.12
2023-04-02T08:01:03.913Z,3.21
2023-04-02T08:03:33.168Z,3.29
2023-04-02T08:06:01.500Z,3.32
2023-04-02T08:08:29.858Z,3.31
2023-04-02T08:10:58.164Z,3.29
2023-04-02T08:13:26.528Z,3.25
2023-04-02T08:15:54.799Z,3.25
2023-04-02T08:18:23.841Z,3.25
2023-04-02T08:20:53.245Z,3.24
2023-04-02T08:23:21.907Z,3.31
2023-04-02T08:25:51.196Z,3.44
2023-04-02T08:28:19.820Z,3.58
2023-04-02T08:30:49.447Z,3.69
2023-04-02T08:33:18.367Z,3.78
2023-04-02T08:35:48.064Z,3.82
2023-04-02T08:38:18.922Z,3.88
2023-04-02T08:40:52.505Z,3.97
2023-04-02T08:43:56.408Z,4.08
2023-04-02T08:46:33.610Z,4.26
2023-04-02T08:49:10.774Z,4.43
2023-04-02T08:51:39.348Z,4.58
2023-04-02T08:54:18.748Z,4.63
2023-04-02T08:56:56.130Z,4.64
2023-04-02T08:59:34.070Z,4.64
2023-04-02T09:02:14.244Z,4.61
2023-04-02T09:04:43.007Z,4.61
2023-04-02T09:07:14.675Z,4.63
2023-04-02T09:09:44.029Z,4.63
2023-04-02T09:12:24.288Z,4.64
2023-04-02T09:15:01.946Z,4.61
2023-04-02T09:17:36.941Z,4.61
2023-04-02T09:20:21.652Z,4.64
2023-04-02T09:22:52.003Z,4.68
2023-04-02T09:25:32.959Z,4.78
2023-04-02T09:28:04.443Z,4.87
2023-04-02T09:30:32.648Z,4.96
2023-04-02T09:33:08.078Z,5.02
2023-04-02T09:35:51.613Z,5.07
2023-04-02T09:38:23.634Z,5.12
2023-04-02T09:40:54.893Z,5.16
2023-04-02T09:43:26.443Z,5.17
2023-04-02T09:46:13.128Z,5.14
2023-04-02T09:48:45.945Z,5.11
2023-04-02T09:51:25.987Z,5.06
2023-04-02T09:54:03.274Z,5.10
2023-04-02T09:56:34.061Z,5.11
2023-04-02T09:59:16.326Z,5.19
2023-04-02T10:01:50.326Z,5.27
2023-04-02T10:04:33.682Z,5.37
2023-04-02T10:07:03.373Z,5.47
2023-04-02T10:09:37.194Z,5.50
2023-04-02T10:12:12.784Z,5.51
2023-04-02T10:14:46.544Z,5.51
2023-04-02T10:17:18.207Z,5.55
2023-04-02T10:20:01.801Z,5.56
2023-04-02T10:22:30.790Z,5.54
2023-04-02T10:24:59.611Z,5.53
2023-04-02T10:27:59.588Z,5.57
2023-04-02T10:30:39.414Z,5.64
2023-04-02T10:33:21.741Z,5.73
2023-04-02T10:36:12.048Z,5.83
2023-04-02T10:39:00.158Z,5.90
2023-04-02T10:41:33.239Z,5.85
2023-04-02T10:44:20.800Z,5.79
2023-04-02T10:46:54.265Z,5.79
2023-04-02T10:49:43.702Z,5.79
2023-04-02T10:52:30.969Z,5.83
2023-04-02T10:55:04.714Z,5.83
2023-04-02T10:57:41.618Z,5.85
2023-04-02T11:00:16.017Z,5.79
2023-04-02T11:02:59.688Z,5.74
2023-04-02T11:05:44.151Z,5.74
2023-04-02T11:08:46.328Z,5.75
2023-04-02T11:11:28.319Z,5.81
2023-04-02T11:14:17.390Z,5.80
2023-04-02T11:16:48.713Z,5.81
2023-04-02T11:19:17.221Z,5.84
2023-04-02T11:22:25.773Z,5.83
2023-04-02T11:24:56.659Z,5.85
2023-04-02T11:27:29.398Z,5.91
2023-04-02T11:30:16.816Z,5.98
2023-04-02T11:32:50.338Z,6.09
2023-04-02T11:35:39.763Z,6.18
2023-04-02T11:38:11.433Z,6.16
2023-04-02T11:40:46.216Z,6.04
2023-04-02T11:43:32.997Z,6.01
2023-04-02T11:46:16.904Z,6.07
2023-04-02T11:48:45.434Z,6.07
2023-04-02T11:51:23.131Z,6.07
2023-04-02T11:53:58.643Z,6.09
2023-04-02T11:56:32.731Z,6.09
2023-04-02T11:59:22.631Z,6.11
2023-04-02T12:01:57.791Z,6.10
2023-04-02T12:05:05.296Z,6.06
2023-04-02T12:08:10.351Z,6.13
2023-04-02T12:11:00.683Z,6.16
2023-04-02T12:14:02.114Z,6.21
2023-04-02T12:16:34.309Z,6.25
2023-04-02T12:19:08.202Z,6.28
2023-04-02T12:21:38.172Z,6.22
2023-04-02T12:24:13.070Z,6.20
2023-04-02T12:26:42.716Z,6.22
2023-04-02T12:29:28.082Z,6.25
2023-04-02T12:31:59.307Z,6.30
2023-04-02T12:34:30.337Z,6.37
2023-04-02T12:37:04.307Z,6.26
2023-04-02T12:39:34.269Z,6.23
2023-04-02T12:42:02.608Z,6.19
2023-04-02T12:44:31.583Z,6.15
2023-04-02T12:47:00.617Z,6.12
2023-04-02T12:49:35.427Z,6.14
2023-04-02T12:52:16.641Z,6.17
2023-04-02T12:54:51.815Z,6.12
2023-04-02T12:57:41.097Z,6.11
2023-04-02T13:00:22.041Z,6.14
2023-04-02T13:03:03.526Z,6.15
2023-04-02T13:05:56.677Z,6.15
2023-04-02T13:08:27.654Z,6.16
2023-04-02T13:11:04.308Z,6.22
2023-04-02T13:13:44.389Z,6.21
2023-04-02T13:16:15.484Z,6.12
2023-04-02T13:18:48.991Z,6.11
2023-04-02T13:21:17.791Z,6.06
2023-04-02T13:23:46.740Z,6.06
2023-04-02T13:26:20.193Z,6.06
2023-04-02T13:29:19.615Z,6.13
2023-04-02T13:31:48.772Z,6.21
2023-04-02T13:34:18.567Z,6.20
2023-04-02T13:36:47.551Z,6.21
2023-04-02T13:39:16.534Z,6.21
2023-04-02T13:41:48.125Z,6.19
2023-04-02T13:44:30.164Z,6.20
2023-04-02T13:47:00.865Z,6.20
2023-04-02T13:49:29.584Z,6.19
2023-04-02T13:52:03.441Z,6.19
2023-04-02T13:54:51.825Z,6.19
2023-04-02T13:57:20.205Z,6.17
2023-04-02T13:59:48.411Z,6.16
2023-04-02T14:02:20.841Z,6.20
2023-04-02T14:04:56.989Z,6.24
2023-04-02T14:07:31.051Z,6.25
2023-04-02T14:10:09.197Z,6.20
2023-04-02T14:13:25.669Z,6.15
2023-04-02T14:16:16.571Z,6.12
2023-04-02T14:18:54.093Z,6.05
2023-04-02T14:21:31.599Z,5.95
2023-04-02T14:24:19.116Z,5.86
2023-04-02T14:27:06.092Z,5.85
2023-04-02T14:29:34.575Z,5.82
2023-04-02T14:32:27.430Z,5.80
2023-04-02T14:35:14.570Z,5.78
2023-04-02T14:37:45.527Z,5.78
2023-04-02T14:40:28.561Z,5.75
2023-04-02T14:43:24.140Z,5.71
2023-04-02T14:46:08.220Z,5.62
2023-04-02T14:48:56.543Z,5.58
2023-04-02T14:51:36.433Z,5.56
2023-04-02T14:54:18.203Z,5.51
2023-04-02T14:56:55.229Z,5.44
2023-04-02T14:59:34.239Z,5.38
2023-04-02T15:02:24.667Z,5.36
2023-04-02T15:05:19.336Z,5.37
2023-04-02T15:07:58.039Z,5.32
2023-04-02T15:10:36.985Z,5.25
2023-04-02T15:13:13.731Z,5.20
2023-04-02T15:15:56.671Z,5.16
2023-04-02T15:18:25.835Z,5.13
2023-04-02T15:21:16.897Z,5.10
2023-04-02T15:24:04.468Z,5.07
2023-04-02T15:26:44.722Z,5.01
2023-04-02T15:29:29.196Z,4.98
2023-04-02T15:32:26.100Z,4.94
2023-04-02T15:35:03.539Z,4.84
2023-04-02T15:38:12.219Z,4.77
2023-04-02T15:40:52.835Z,4.70
2023-04-02T15:43:31.731Z,4.66
2023-04-02T15:46:12.130Z,4.62
2023-04-02T15:49:13.420Z,4.55
2023-04-02T15:51:55.511Z,4.47
2023-04-02T15:55:00.788Z,4.42
2023-04-02T15:57:59.185Z,4.34
2023-04-02T16:00:31.034Z,4.29
2023-04-02T16:03:06.727Z,4.22
2023-04-02T16:06:00.864Z,4.17
2023-04-02T16:08:57.409Z,4.12
2023-04-02T16:11:27.458Z,4.07
2023-04-02T16:14:01.470Z,4.04
2023-04-02T16:16:36.240Z,3.98
2023-04-02T16:19:29.140Z,3.94
2023-04-02T16:22:14.775Z,3.89
2023-04-02T16:24:43.337Z,3.85
2023-04-02T16:27:29.916Z,3.79
2023-04-02T16:30:07.115Z,3.72
2023-04-02T16:33:13.297Z,3.65
2023-04-02T16:35:43.418Z,3.56
2023-04-02T16:38:36.951Z,3.49
2023-04-02T16:41:19.573Z,3.39
2023-04-02T16:43:56.842Z,3.32
2023-04-02T16:47:00.622Z,3.26
2023-04-02T16:49:48.292Z,3.19
2023-04-02T16:52:34.115Z,3.14
2023-04-02T16:55:31.665Z,3.07
2023-04-02T16:58:10.636Z,3.00
2023-04-02T17:00:56.410Z,2.95
2023-04-02T17:03:57.705Z,2.89
2023-04-02T17:06:42.924Z,2.79
2023-04-02T17:09:11.189Z,2.79
2023-04-02T17:12:17.816Z,2.75
2023-04-02T17:14:58.870Z,2.69
2023-04-02T17:17:31.121Z,2.66
2023-04-02T17:20:01.453Z,2.63
2023-04-02T17:22:31.947Z,2.58
2023-04-02T17:25:04.043Z,2.54
2023-04-02T17:27:43.958Z,2.49
2023-04-02T17:30:23.796Z,2.45
2023-04-02T17:32:52.414Z,2.41
2023-04-02T17:35:42.731Z,2.35
2023-04-02T17:38:33.193Z,2.30
2023-04-02T17:41:29.160Z,2.24
2023-04-02T17:44:30.183Z,2.18
2023-04-02T17:50:25.815Z,2.04
2023-04-02T17:53:20.821Z,1.98
2023-04-02T17:56:01.148Z,1.92
2023-04-02T17:58:38.558Z,1.88
2023-04-02T18:01:59.820Z,1.84
2023-04-02T18:04:54.283Z,1.79
2023-04-02T18:07:25.627Z,1.74
2023-04-02T18:10:04.257Z,1.70
2023-04-02T18:13:23.717Z,1.66
2023-04-02T18:16:17.902Z,1.62
2023-04-02T18:18:48.818Z,1.56
2023-04-02T18:21:23.371Z,1.53
2023-04-02T18:24:20.978Z,1.50
2023-04-02T18:26:52.301Z,1.46
2023-04-02T18:29:42.315Z,1.45
2023-04-02T18:32:29.420Z,1.42
2023-04-02T18:35:19.177Z,1.41
2023-04-02T18:38:16.730Z,1.37
2023-04-02T18:41:13.118Z,1.31
2023-04-02T18:43:50.467Z,1.28
2023-04-02T18:46:33.653Z,1.24
2023-04-02T18:49:21.874Z,1.22
2023-04-02T18:51:56.051Z,1.19
2023-04-02T18:54:27.188Z,1.17
2023-04-02T18:56:55.924Z,1.19
2023-04-02T18:59:57.049Z,1.18
2023-04-02T19:02:34.740Z,1.15
2023-04-02T19:05:34.616Z,1.12
2023-04-02T19:08:43.813Z,1.09
2023-04-02T19:11:18.940Z,1.06
2023-04-02T19:13:49.189Z,1.04
2023-04-02T19:16:17.495Z,1.03
2023-04-02T19:19:11.781Z,1.03
2023-04-02T19:21:53.208Z,1.03
2023-04-02T19:24:33.916Z,1.04
2023-04-02T19:27:20.506Z,1.03
2023-04-02T19:30:06.673Z,1.04
2023-04-02T19:33:09.111Z,1.03
2023-04-02T19:35:59.008Z,0.99
2023-04-02T19:38:42.848Z,0.96
2023-04-02T19:41:16.977Z,0.91
2023-04-02T19:43:45.749Z,0.89
2023-04-02T19:46:14.412Z,0.86
2023-04-02T19:48:48.996Z,0.86
2023-04-02T19:51:17.381Z,0.87
2023-04-02T19:53:45.873Z,0.86
2023-04-02T19:56:14.151Z,0.85
2023-04-02T19:58:42.463Z,0.83
2023-04-02T20:01:11.058Z,0.80
2023-04-02T20:03:39.418Z,0.78
2023-04-02T20:06:07.750Z,0.75
2023-04-02T20:08:39.288Z,0.74
2023-04-02T20:11:07.707Z,0.71
2023-04-02T20:13:36.120Z,0.72
2023-04-02T20:16:06.695Z,0.75
2023-04-02T20:18:37.325Z,0.77
2023-04-02T20:21:07.143Z,0.77
2023-04-02T20:23:36.445Z,0.78
2023-04-02T20:26:05.541Z,0.76
2023-04-02T20:28:34.002Z,0.73
2023-04-02T20:31:08.072Z,0.72
2023-04-02T20:33:37.505Z,0.70
2023-04-02T20:36:09.178Z,0.68
2023-04-02T20:38:37.902Z,0.66
2023-04-02T20:41:07.809Z,0.64
2023-04-02T20:43:37.832Z,0.65
2023-04-02T20:46:09.518Z,0.65
2023-04-02T20:48:39.245Z,0.65
2023-04-02T20:51:09.919Z,0.67
2023-04-02T20:53:39.020Z,0.66
2023-04-02T20:56:19.226Z,0.62
2023-04-02T20:58:47.511Z,0.56
2023-04-02T21:01:26.174Z,0.51
2023-04-02T21:04:00.062Z,0.45
2023-04-02T21:06:36.716Z,0.42
2023-04-02T21:09:08.759Z,0.41
2023-04-02T21:11:37.614Z,0.41
2023-04-02T21:14:07.363Z,0.42
2023-04-02T21:16:35.961Z,0.43
2023-04-02T21:19:08.246Z,0.41
2023-04-02T21:21:38.550Z,0.40
2023-04-02T21:24:09.837Z,0.36
2023-04-02T21:26:40.708Z,0.34
2023-04-02T21:29:09.229Z,0.32
2023-04-02T21:31:39.685Z,0.32
2023-04-02T21:34:11.526Z,0.28
2023-04-02T21:36:42.692Z,0.26
2023-04-02T21:39:16.756Z,0.27
2023-04-02T21:41:47.563Z,0.29
2023-04-02T21:44:19.213Z,0.32
2023-04-02T21:46:48.965Z,0.33
2023-04-02T21:49:20.193Z,0.34
2023-04-02T21:51:49.494Z,0.34
2023-04-02T21:54:18.245Z,0.31
2023-04-02T21:56:47.747Z,0.26
2023-04-02T21:59:17.799Z,0.20
2023-04-02T22:01:49.100Z,0.16
2023-04-02T22:04:23.849Z,0.10
2023-04-02T22:06:53.484Z,0.04
2023-04-02T22:09:25.965Z,0.01
2023-04-02T22:11:59.420Z,-0.01
2023-04-02T22:14:28.642Z,-0.02
2023-04-02T22:16:58.998Z,-0.05
2023-04-02T22:19:27.742Z,-0.09
2023-04-02T22:21:57.079Z,-0.12
2023-04-02T22:24:25.602Z,-0.15
2023-04-02T22:26:54.482Z,-0.19
2023-04-02T22:29:22.745Z,-0.23
2023-04-02T22:31:51.436Z,-0.25
2023-04-02T22:34:19.978Z,-0.24
2023-04-02T22:36:48.343Z,-0.19
2023-04-02T22:39:17.267Z,-0.17
2023-04-02T22:41:45.556Z,-0.13
2023-04-02T22:44:17.215Z,-0.15
2023-04-02T22:46:45.552Z,-0.18
2023-04-02T22:49:19.518Z,-0.22
2023-04-02T22:51:48.003Z,-0.27
2023-04-02T22:54:16.398Z,-0.28
2023-04-02T22:56:44.745Z,-0.28
2023-04-02T22:59:13.077Z,-0.31
2023-04-02T23:01:41.744Z,-0.30
2023-04-02T23:04:10.100Z,-0.30
2023-04-02T23:06:38.444Z,-0.30
2023-04-02T23:09:06.734Z,-0.33
2023-04-02T23:11:35.069Z,-0.34
2023-04-02T23:14:03.427Z,-0.34
2023-04-02T23:16:31.867Z,-0.37
2023-04-02T23:19:00.287Z,-0.40
2023-04-02T23:21:28.547Z,-0.41
2023-04-02T23:23:57.424Z,-0.41
2023-04-02T23:26:31.557Z,-0.38
2023-04-02T23:29:00.972Z,-0.36
2023-04-02T23:31:29.967Z,-0.34
2023-04-02T23:33:58.741Z,-0.32
2023-04-02T23:36:29.486Z,-0.33
2023-04-02T23:39:11.482Z,-0.33
2023-04-02T23:41:42.883Z,-0.34
2023-04-02T23:44:11.432Z,-0.35
2023-04-02T23:46:39.722Z,-0.36
2023-04-02T23:49:12.003Z,-0.34
2023-04-02T23:51:40.877Z,-0.30
2023-04-02T23:54:11.983Z,-0.27
2023-04-02T23:56:41.216Z,-0.26
2023-04-02T23:59:09.524Z,-0.24
